sensor_id;sensor_type;location;lat;lon;timestamp;pressure;altitude;pressure_sealevel;temperature;humidity
21781;BME280;52576;53.614;9.894;2022-12-18T00:00:43;102428.75;;;-5.27;100.00
21781;BME280;52576;53.614;9.894;2022-12-18T00:01:48;102421.00;;;-5.29;100.00
21781;BME280;52576;53.614;9.894;2022-12-18T00:02:51;102422.81;;;-5.31;100.00
21781;BME280;52576;53.614;9.894;2022-12-18T00:03:55;102427.19;;;-5.31;100.00
21781;BME280;52576;53.614;9.894;2022-12-18T00:05:00;102425.59;;;-5.35;100.00
21781;BME280;52576;53.614;9.894;2022-12-18T00:06:04;102423.91;;;-5.36;100.00
21781;BME280;52576;53.614;9.894;2022-12-18T00:07:06;102417.97;;;-5.40;100.00
21781;BME280;52576;53.614;9.894;2022-12-18T00:08:10;102422.34;;;-5.40;100.00
21781;BME280;52576;53.614;9.894;2022-12-18T00:09:12;102428.47;;;-5.41;100.00
21781;BME280;52576;53.614;9.894;2022-12-18T00:10:17;102427.63;;;-5.42;100.00
21781;BME280;52576;53.614;9.894;2022-12-18T00:11:21;102423.31;;;-5.43;100.00
21781;BME280;52576;53.614;9.894;2022-12-18T00:12:24;102421.59;;;-5.44;100.00
21781;BME280;52576;53.614;9.894;2022-12-18T00:13:27;102423.41;;;-5.46;100.00
21781;BME280;52576;53.614;9.894;2022-12-18T00:14:30;102420.81;;;-5.46;100.00
21781;BME280;52576;53.614;9.894;2022-12-18T00:15:33;102427.00;;;-5.48;100.00
21781;BME280;52576;53.614;9.894;2022-12-18T00:16:36;102425.28;;;-5.48;100.00
21781;BME280;52576;53.614;9.894;2022-12-18T00:17:39;102417.47;;;-5.49;100.00
21781;BME280;52576;53.614;9.894;2022-12-18T00:18:42;102415.94;;;-5.53;100.00
21781;BME280;52576;53.614;9.894;2022-12-18T00:19:44;102424.41;;;-5.48;100.00
21781;BME280;52576;53.614;9.894;2022-12-18T00:20:48;102424.41;;;-5.48;100.00
21781;BME280;52576;53.614;9.894;2022-12-18T00:21:50;102427.91;;;-5.49;100.00
21781;BME280;52576;53.614;9.894;2022-12-18T00:22:53;102424.47;;;-5.50;100.00
21781;BME280;52576;53.614;9.894;2022-12-18T00:23:56;102440.16;;;-5.51;100.00
21781;BME280;52576;53.614;9.894;2022-12-18T00:24:59;102437.56;;;-5.51;100.00
21781;BME280;52576;53.614;9.894;2022-12-18T00:26:07;102435.91;;;-5.54;100.00
21781;BME280;52576;53.614;9.894;2022-12-18T00:27:11;102435.91;;;-5.54;100.00
21781;BME280;52576;53.614;9.894;2022-12-18T00:28:13;102446.34;;;-5.54;100.00
21781;BME280;52576;53.614;9.894;2022-12-18T00:29:16;102448.16;;;-5.56;100.00
21781;BME280;52576;53.614;9.894;2022-12-18T00:30:18;102449.94;;;-5.56;100.00
21781;BME280;52576;53.614;9.894;2022-12-18T00:31:23;102487.28;;;-5.57;100.00
21781;BME280;52576;53.614;9.894;2022-12-18T00:32:27;102449.00;;;-5.55;100.00
21781;BME280;52576;53.614;9.894;2022-12-18T00:33:31;102455.34;;;-5.62;100.00
21781;BME280;52576;53.614;9.894;2022-12-18T00:34:33;102459.44;;;-5.55;100.00
21781;BME280;52576;53.614;9.894;2022-12-18T00:35:36;102442.94;;;-5.56;100.00
21781;BME280;52576;53.614;9.894;2022-12-18T00:36:39;102449.06;;;-5.57;100.00
21781;BME280;52576;53.614;9.894;2022-12-18T00:37:43;102450.00;;;-5.58;100.00
21781;BME280;52576;53.614;9.894;2022-12-18T00:38:46;102438.72;;;-5.58;100.00
21781;BME280;52576;53.614;9.894;2022-12-18T00:39:52;102437.84;;;-5.59;100.00
21781;BME280;52576;53.614;9.894;2022-12-18T00:40:54;102432.63;;;-5.59;100.00
21781;BME280;52576;53.614;9.894;2022-12-18T00:41:59;102436.97;;;-5.58;100.00
21781;BME280;52576;53.614;9.894;2022-12-18T00:43:20;102436.09;;;-5.58;100.00
21781;BME280;52576;53.614;9.894;2022-12-18T00:44:22;102436.16;;;-5.60;100.00
21781;BME280;52576;53.614;9.894;2022-12-18T00:45:26;102439.56;;;-5.58;100.00
21781;BME280;52576;53.614;9.894;2022-12-18T00:46:29;102430.91;;;-5.58;100.00
21781;BME280;52576;53.614;9.894;2022-12-18T00:47:32;102441.31;;;-5.58;100.00
21781;BME280;52576;53.614;9.894;2022-12-18T00:48:34;102439.59;;;-5.59;100.00
21781;BME280;52576;53.614;9.894;2022-12-18T00:49:37;102442.19;;;-5.59;100.00
21781;BME280;52576;53.614;9.894;2022-12-18T00:50:39;102438.84;;;-5.61;100.00
21781;BME280;52576;53.614;9.894;2022-12-18T00:51:43;102437.06;;;-5.61;100.00
21781;BME280;52576;53.614;9.894;2022-12-18T00:52:45;102440.66;;;-5.63;100.00
21781;BME280;52576;53.614;9.894;2022-12-18T00:53:48;102443.25;;;-5.63;100.00
21781;BME280;52576;53.614;9.894;2022-12-18T00:54:50;102439.84;;;-5.65;100.00
21781;BME280;52576;53.614;9.894;2022-12-18T00:55:53;102436.44;;;-5.67;100.00
21781;BME280;52576;53.614;9.894;2022-12-18T00:56:55;102442.59;;;-5.68;100.00
21781;BME280;52576;53.614;9.894;2022-12-18T00:58:00;102442.72;;;-5.71;100.00
21781;BME280;52576;53.614;9.894;2022-12-18T00:59:02;102442.78;;;-5.73;100.00
21781;BME280;52576;53.614;9.894;2022-12-18T01:00:07;102453.22;;;-5.74;100.00
21781;BME280;52576;53.614;9.894;2022-12-18T01:01:10;102448.06;;;-5.76;100.00
21781;BME280;52576;53.614;9.894;2022-12-18T01:02:13;102457.66;;;-5.76;100.00
21781;BME280;52576;53.614;9.894;2022-12-18T01:03:17;102453.34;;;-5.77;100.00
21781;BME280;52576;53.614;9.894;2022-12-18T01:04:20;102448.13;;;-5.77;100.00
21781;BME280;52576;53.614;9.894;2022-12-18T01:05:22;102447.41;;;-5.81;100.00
21781;BME280;52576;53.614;9.894;2022-12-18T01:06:27;102454.25;;;-5.78;100.00
21781;BME280;52576;53.614;9.894;2022-12-18T01:07:29;102453.34;;;-5.77;100.00
21781;BME280;52576;53.614;9.894;2022-12-18T01:08:33;102455.13;;;-5.78;100.00
21781;BME280;52576;53.614;9.894;2022-12-18T01:09:36;102452.53;;;-5.79;100.00
21781;BME280;52576;53.614;9.894;2022-12-18T01:10:40;102453.47;;;-5.80;100.00
21781;BME280;52576;53.614;9.894;2022-12-18T01:11:43;102441.38;;;-5.81;100.00
21781;BME280;52576;53.614;9.894;2022-12-18T01:12:46;102443.06;;;-5.80;100.00
21781;BME280;52576;53.614;9.894;2022-12-18T01:13:51;102434.59;;;-5.85;100.00
21781;BME280;52576;53.614;9.894;2022-12-18T01:14:56;102449.19;;;-5.81;100.00
21781;BME280;52576;53.614;9.894;2022-12-18T01:15:59;102447.41;;;-5.81;100.00
21781;BME280;52576;53.614;9.894;2022-12-18T01:17:04;102449.19;;;-5.81;100.00
21781;BME280;52576;53.614;9.894;2022-12-18T01:18:07;102439.69;;;-5.82;100.00
21781;BME280;52576;53.614;9.894;2022-12-18T01:19:09;102439.69;;;-5.82;100.00
21781;BME280;52576;53.614;9.894;2022-12-18T01:20:13;102444.91;;;-5.82;100.00
21781;BME280;52576;53.614;9.894;2022-12-18T01:21:16;102431.03;;;-5.83;100.00
21781;BME280;52576;53.614;9.894;2022-12-18T01:22:19;102441.47;;;-5.83;100.00
21781;BME280;52576;53.614;9.894;2022-12-18T01:23:21;102438.84;;;-5.83;100.00
21781;BME280;52576;53.614;9.894;2022-12-18T01:24:24;102436.28;;;-5.84;100.00
21781;BME280;52576;53.614;9.894;2022-12-18T01:25:26;102439.81;;;-5.85;100.00
21781;BME280;52576;53.614;9.894;2022-12-18T01:26:29;102447.69;;;-5.87;100.00
21781;BME280;52576;53.614;9.894;2022-12-18T01:27:32;102440.78;;;-5.88;100.00
21781;BME280;52576;53.614;9.894;2022-12-18T01:28:38;102446.81;;;-5.87;100.00
21781;BME280;52576;53.614;9.894;2022-12-18T01:29:43;102442.53;;;-5.88;100.00
21781;BME280;52576;53.614;9.894;2022-12-18T01:30:46;102434.72;;;-5.88;100.00
21781;BME280;52576;53.614;9.894;2022-12-18T01:31:48;102433.81;;;-5.87;100.00
21781;BME280;52576;53.614;9.894;2022-12-18T01:32:51;102435.50;;;-5.86;100.00
21781;BME280;52576;53.614;9.894;2022-12-18T01:33:54;102444.16;;;-5.86;100.00
21781;BME280;52576;53.614;9.894;2022-12-18T01:34:57;102446.66;;;-5.83;100.00
21781;BME280;52576;53.614;9.894;2022-12-18T01:36:01;102439.69;;;-5.82;100.00
21781;BME280;52576;53.614;9.894;2022-12-18T01:37:04;102443.00;;;-5.79;100.00
21781;BME280;52576;53.614;9.894;2022-12-18T01:38:07;102449.84;;;-5.76;100.00
21781;BME280;52576;53.614;9.894;2022-12-18T01:39:11;102455.81;;;-5.74;100.00
21781;BME280;52576;53.614;9.894;2022-12-18T01:40:16;102453.13;;;-5.71;100.00
21781;BME280;52576;53.614;9.894;2022-12-18T01:41:21;102457.28;;;-5.67;100.00
21781;BME280;52576;53.614;9.894;2022-12-18T01:42:24;102453.75;;;-5.65;100.00
21781;BME280;52576;53.614;9.894;2022-12-18T01:43:48;102452.75;;;-5.62;100.00
21781;BME280;52576;53.614;9.894;2022-12-18T01:45:06;102457.84;;;-5.59;100.00
21781;BME280;52576;53.614;9.894;2022-12-18T01:46:09;102462.09;;;-5.57;100.00
21781;BME280;52576;53.614;9.894;2022-12-18T01:47:14;102459.44;;;-5.55;100.00
21781;BME280;52576;53.614;9.894;2022-12-18T01:48:18;102453.25;;;-5.53;100.00
21781;BME280;52576;53.614;9.894;2022-12-18T01:49:20;102460.22;;;-5.53;100.00
21781;BME280;52576;53.614;9.894;2022-12-18T01:50:27;102464.50;;;-5.52;100.00
21781;BME280;52576;53.614;9.894;2022-12-18T01:51:30;102467.06;;;-5.51;100.00
21781;BME280;52576;53.614;9.894;2022-12-18T01:52:34;102466.28;;;-5.53;100.00
21781;BME280;52576;53.614;9.894;2022-12-18T01:53:39;102466.22;;;-5.51;100.00
21781;BME280;52576;53.614;9.894;2022-12-18T01:54:43;102467.13;;;-5.52;100.00
21781;BME280;52576;53.614;9.894;2022-12-18T01:55:48;102472.34;;;-5.52;100.00
21781;BME280;52576;53.614;9.894;2022-12-18T01:56:53;102468.03;;;-5.53;100.00
21781;BME280;52576;53.614;9.894;2022-12-18T01:57:57;102478.53;;;-5.55;100.00
21781;BME280;52576;53.614;9.894;2022-12-18T01:59:03;102476.81;;;-5.56;100.00
21781;BME280;52576;53.614;9.894;2022-12-18T02:00:11;102463.91;;;-5.59;100.00
21781;BME280;52576;53.614;9.894;2022-12-18T02:01:15;102477.78;;;-5.58;100.00
21781;BME280;52576;53.614;9.894;2022-12-18T02:02:20;102472.59;;;-5.58;100.00
21781;BME280;52576;53.614;9.894;2022-12-18T02:03:24;102474.38;;;-5.60;100.00
21781;BME280;52576;53.614;9.894;2022-12-18T02:04:27;102466.63;;;-5.62;100.00
21781;BME280;52576;53.614;9.894;2022-12-18T02:05:41;102469.31;;;-5.63;100.00
21781;BME280;52576;53.614;9.894;2022-12-18T02:06:50;102471.06;;;-5.64;100.00
21781;BME280;52576;53.614;9.894;2022-12-18T02:08:02;102480.69;;;-5.66;100.00
21781;BME280;52576;53.614;9.894;2022-12-18T02:09:09;102466.81;;;-5.66;100.00
21781;BME280;52576;53.614;9.894;2022-12-18T02:10:20;102465.97;;;-5.67;100.00
21781;BME280;52576;53.614;9.894;2022-12-18T02:11:38;102469.53;;;-5.69;100.00
21781;BME280;52576;53.614;9.894;2022-12-18T02:12:45;102470.69;;;-5.76;100.00
21781;BME280;52576;53.614;9.894;2022-12-18T02:13:55;102481.72;;;-5.70;100.00
21781;BME280;52576;53.614;9.894;2022-12-18T02:15:05;102473.09;;;-5.72;100.00
21781;BME280;52576;53.614;9.894;2022-12-18T02:16:19;102479.19;;;-5.71;100.00
21781;BME280;52576;53.614;9.894;2022-12-18T02:17:30;102475.66;;;-5.70;100.00
21781;BME280;52576;53.614;9.894;2022-12-18T02:18:39;102479.13;;;-5.70;100.00
21781;BME280;52576;53.614;9.894;2022-12-18T02:19:54;102485.16;;;-5.69;100.00
21781;BME280;52576;53.614;9.894;2022-12-18T02:21:09;102492.06;;;-5.68;100.00
21781;BME280;52576;53.614;9.894;2022-12-18T02:22:26;102483.41;;;-5.69;100.00
21781;BME280;52576;53.614;9.894;2022-12-18T02:23:45;102485.94;;;-5.67;100.00
21781;BME280;52576;53.614;9.894;2022-12-18T02:24:58;102486.81;;;-5.67;100.00
21781;BME280;52576;53.614;9.894;2022-12-18T02:26:19;102485.13;;;-5.68;100.00
21781;BME280;52576;53.614;9.894;2022-12-18T02:27:27;102477.34;;;-5.69;100.00
21781;BME280;52576;53.614;9.894;2022-12-18T02:28:32;102482.53;;;-5.69;100.00
21781;BME280;52576;53.614;9.894;2022-12-18T02:29:45;102497.41;;;-5.71;100.00
21781;BME280;52576;53.614;9.894;2022-12-18T02:31:01;102490.59;;;-5.75;100.00
21781;BME280;52576;53.614;9.894;2022-12-18T02:32:09;102493.16;;;-5.74;100.00
21781;BME280;52576;53.614;9.894;2022-12-18T02:33:14;102489.69;;;-5.74;100.00
21781;BME280;52576;53.614;9.894;2022-12-18T02:34:19;102494.13;;;-5.76;100.00
21781;BME280;52576;53.614;9.894;2022-12-18T02:35:26;102493.28;;;-5.77;100.00
21781;BME280;52576;53.614;9.894;2022-12-18T02:36:33;102491.63;;;-5.79;100.00
21781;BME280;52576;53.614;9.894;2022-12-18T02:37:39;102494.28;;;-5.81;100.00
21781;BME280;52576;53.614;9.894;2022-12-18T02:38:44;102484.00;;;-5.84;100.00
21781;BME280;52576;53.614;9.894;2022-12-18T02:39:53;102494.50;;;-5.85;100.00
21781;BME280;52576;53.614;9.894;2022-12-18T02:40:59;102494.56;;;-5.87;100.00
21781;BME280;52576;53.614;9.894;2022-12-18T02:42:03;102492.00;;;-5.88;100.00
21781;BME280;52576;53.614;9.894;2022-12-18T02:43:14;102488.59;;;-5.90;100.00
21781;BME280;52576;53.614;9.894;2022-12-18T02:44:19;102492.19;;;-5.93;100.00
21781;BME280;52576;53.614;9.894;2022-12-18T02:45:21;102485.31;;;-5.95;100.00
21781;BME280;52576;53.614;9.894;2022-12-18T02:46:30;102485.38;;;-5.97;100.00
21781;BME280;52576;53.614;9.894;2022-12-18T02:47:38;102486.34;;;-5.99;100.00
21781;BME280;52576;53.614;9.894;2022-12-18T02:48:42;102493.38;;;-6.01;100.00
21781;BME280;52576;53.614;9.894;2022-12-18T02:49:54;102490.03;;;-6.05;100.00
21781;BME280;52576;53.614;9.894;2022-12-18T02:51:07;102487.38;;;-6.03;100.00
21781;BME280;52576;53.614;9.894;2022-12-18T02:52:16;102487.50;;;-6.06;100.00
21781;BME280;52576;53.614;9.894;2022-12-18T02:53:26;102487.53;;;-6.08;100.00
21781;BME280;52576;53.614;9.894;2022-12-18T02:54:41;102491.09;;;-6.10;100.00
21781;BME280;52576;53.614;9.894;2022-12-18T02:55:56;102496.38;;;-6.12;100.00
21781;BME280;52576;53.614;9.894;2022-12-18T02:57:10;102494.75;;;-6.16;100.00
21781;BME280;52576;53.614;9.894;2022-12-18T02:58:26;102487.94;;;-6.18;100.00
21781;BME280;52576;53.614;9.894;2022-12-18T02:59:41;102495.78;;;-6.20;100.00
21781;BME280;52576;53.614;9.894;2022-12-18T03:00:52;102491.53;;;-6.22;100.00
21781;BME280;52576;53.614;9.894;2022-12-18T03:01:58;102483.78;;;-6.24;100.00
21781;BME280;52576;53.614;9.894;2022-12-18T03:03:09;102487.31;;;-6.25;100.00
21781;BME280;52576;53.614;9.894;2022-12-18T03:04:17;102481.28;;;-6.27;100.00
21781;BME280;52576;53.614;9.894;2022-12-18T03:05:26;102495.16;;;-6.26;100.00
21781;BME280;52576;53.614;9.894;2022-12-18T03:06:32;102491.75;;;-6.28;100.00
21781;BME280;52576;53.614;9.894;2022-12-18T03:07:39;102502.22;;;-6.30;100.00
21781;BME280;52576;53.614;9.894;2022-12-18T03:08:48;102497.97;;;-6.32;100.00
21781;BME280;52576;53.614;9.894;2022-12-18T03:09:53;102508.44;;;-6.34;100.00
21781;BME280;52576;53.614;9.894;2022-12-18T03:10:59;102507.56;;;-6.34;100.00
21781;BME280;52576;53.614;9.894;2022-12-18T03:12:10;102506.81;;;-6.36;100.00
21781;BME280;52576;53.614;9.894;2022-12-18T03:13:31;102500.75;;;-6.37;100.00
21781;BME280;52576;53.614;9.894;2022-12-18T03:14:37;102490.50;;;-6.41;100.00
21781;BME280;52576;53.614;9.894;2022-12-18T03:15:42;102493.00;;;-6.38;100.00
21781;BME280;52576;53.614;9.894;2022-12-18T03:16:49;102493.88;;;-6.39;100.00
21781;BME280;52576;53.614;9.894;2022-12-18T03:17:57;102497.41;;;-6.40;100.00
21781;BME280;52576;53.614;9.894;2022-12-18T03:19:08;102494.84;;;-6.42;100.00
21781;BME280;52576;53.614;9.894;2022-12-18T03:20:15;102494.00;;;-6.43;100.00
21781;BME280;52576;53.614;9.894;2022-12-18T03:21:23;102505.25;;;-6.42;100.00
21781;BME280;52576;53.614;9.894;2022-12-18T03:22:29;102499.19;;;-6.43;100.00
21781;BME280;52576;53.614;9.894;2022-12-18T03:23:36;102506.13;;;-6.41;100.00
21781;BME280;52576;53.614;9.894;2022-12-18T03:24:44;102506.13;;;-6.41;100.00
21781;BME280;52576;53.614;9.894;2022-12-18T03:25:52;102505.19;;;-6.40;100.00
21781;BME280;52576;53.614;9.894;2022-12-18T03:27:00;102504.34;;;-6.41;100.00
21781;BME280;52576;53.614;9.894;2022-12-18T03:28:07;102505.19;;;-6.40;100.00
21781;BME280;52576;53.614;9.894;2022-12-18T03:29:16;102512.16;;;-6.41;100.00
21781;BME280;52576;53.614;9.894;2022-12-18T03:30:22;102507.81;;;-6.40;100.00
21781;BME280;52576;53.614;9.894;2022-12-18T03:31:26;102506.88;;;-6.39;100.00
21781;BME280;52576;53.614;9.894;2022-12-18T03:32:33;102505.19;;;-6.40;100.00
21781;BME280;52576;53.614;9.894;2022-12-18T03:33:45;102504.28;;;-6.39;100.00
21781;BME280;52576;53.614;9.894;2022-12-18T03:34:50;102504.28;;;-6.39;100.00
21781;BME280;52576;53.614;9.894;2022-12-18T03:35:57;102504.28;;;-6.39;100.00
21781;BME280;52576;53.614;9.894;2022-12-18T03:37:01;102517.28;;;-6.38;100.00
21781;BME280;52576;53.614;9.894;2022-12-18T03:38:05;102506.00;;;-6.38;100.00
21781;BME280;52576;53.614;9.894;2022-12-18T03:39:13;102507.75;;;-6.39;100.00
21781;BME280;52576;53.614;9.894;2022-12-18T03:40:20;102503.47;;;-6.40;100.00
21781;BME280;52576;53.614;9.894;2022-12-18T03:41:30;102505.09;;;-6.37;100.00
21781;BME280;52576;53.614;9.894;2022-12-18T03:43:03;102503.41;;;-6.38;100.00
21781;BME280;52576;53.614;9.894;2022-12-18T03:44:12;102510.34;;;-6.39;100.00
21781;BME280;52576;53.614;9.894;2022-12-18T03:45:23;102510.34;;;-6.39;100.00
21781;BME280;52576;53.614;9.894;2022-12-18T03:46:30;102509.50;;;-6.39;100.00
21781;BME280;52576;53.614;9.894;2022-12-18T03:47:39;102510.41;;;-6.40;100.00
21781;BME280;52576;53.614;9.894;2022-12-18T03:48:48;102501.81;;;-6.43;100.00
21781;BME280;52576;53.614;9.894;2022-12-18T03:49:58;102500.91;;;-6.41;100.00
21781;BME280;52576;53.614;9.894;2022-12-18T03:51:17;102503.50;;;-6.41;100.00
21781;BME280;52576;53.614;9.894;2022-12-18T03:52:27;102505.25;;;-6.42;100.00
21781;BME280;52576;53.614;9.894;2022-12-18T03:53:37;102511.31;;;-6.41;100.00
21781;BME280;52576;53.614;9.894;2022-12-18T03:54:45;102502.72;;;-6.43;100.00
21781;BME280;52576;53.614;9.894;2022-12-18T03:55:51;102508.78;;;-6.43;100.00
21781;BME280;52576;53.614;9.894;2022-12-18T03:56:58;102506.19;;;-6.43;100.00
21781;BME280;52576;53.614;9.894;2022-12-18T03:58:04;102514.88;;;-6.44;100.00
21781;BME280;52576;53.614;9.894;2022-12-18T03:59:24;102505.38;;;-6.45;100.00
21781;BME280;52576;53.614;9.894;2022-12-18T04:00:30;102508.84;;;-6.46;100.00
21781;BME280;52576;53.614;9.894;2022-12-18T04:01:40;102503.66;;;-6.46;100.00
21781;BME280;52576;53.614;9.894;2022-12-18T04:02:51;102504.56;;;-6.47;100.00
21781;BME280;52576;53.614;9.894;2022-12-18T04:03:59;102501.09;;;-6.48;100.00
21781;BME280;52576;53.614;9.894;2022-12-18T04:05:07;102503.75;;;-6.49;100.00
21781;BME280;52576;53.614;9.894;2022-12-18T04:06:14;102497.69;;;-6.48;100.00
21781;BME280;52576;53.614;9.894;2022-12-18T04:07:19;102497.63;;;-6.47;100.00
21781;BME280;52576;53.614;9.894;2022-12-18T04:08:23;102488.91;;;-6.46;100.00
21781;BME280;52576;53.614;9.894;2022-12-18T04:09:36;102492.31;;;-6.43;100.00
21781;BME280;52576;53.614;9.894;2022-12-18T04:10:42;102499.19;;;-6.43;100.00
21781;BME280;52576;53.614;9.894;2022-12-18T04:11:46;102500.91;;;-6.41;100.00
21781;BME280;52576;53.614;9.894;2022-12-18T04:12:49;102502.59;;;-6.40;100.00
21781;BME280;52576;53.614;9.894;2022-12-18T04:13:55;102503.41;;;-6.38;100.00
21781;BME280;52576;53.614;9.894;2022-12-18T04:14:59;102504.22;;;-6.36;100.00
21781;BME280;52576;53.614;9.894;2022-12-18T04:16:04;102500.69;;;-6.35;100.00
21781;BME280;52576;53.614;9.894;2022-12-18T04:17:06;102507.56;;;-6.33;100.00
21781;BME280;52576;53.614;9.894;2022-12-18T04:18:11;102508.38;;;-6.32;100.00
21781;BME280;52576;53.614;9.894;2022-12-18T04:19:16;102499.69;;;-6.31;100.00
21781;BME280;52576;53.614;9.894;2022-12-18T04:20:22;102490.16;;;-6.32;100.00
21781;BME280;52576;53.614;9.894;2022-12-18T04:21:25;102491.03;;;-6.32;100.00
21781;BME280;52576;53.614;9.894;2022-12-18T04:22:28;102488.47;;;-6.33;100.00
21781;BME280;52576;53.614;9.894;2022-12-18T04:23:33;102497.16;;;-6.33;100.00
21781;BME280;52576;53.614;9.894;2022-12-18T04:24:38;102502.38;;;-6.34;100.00
21781;BME280;52576;53.614;9.894;2022-12-18T04:25:50;102504.97;;;-6.34;100.00
21781;BME280;52576;53.614;9.894;2022-12-18T04:27:06;102498.19;;;-6.38;100.00
21781;BME280;52576;53.614;9.894;2022-12-18T04:28:16;102499.88;;;-6.37;100.00
21781;BME280;52576;53.614;9.894;2022-12-18T04:29:19;102501.66;;;-6.38;100.00
21781;BME280;52576;53.614;9.894;2022-12-18T04:30:23;102499.09;;;-6.39;100.00
21781;BME280;52576;53.614;9.894;2022-12-18T04:31:27;102506.94;;;-6.41;100.00
21781;BME280;52576;53.614;9.894;2022-12-18T04:32:30;102502.66;;;-6.42;100.00
21781;BME280;52576;53.614;9.894;2022-12-18T04:33:34;102498.38;;;-6.43;100.00
21781;BME280;52576;53.614;9.894;2022-12-18T04:34:38;102494.09;;;-6.46;100.00
21781;BME280;52576;53.614;9.894;2022-12-18T04:35:41;102490.69;;;-6.48;100.00
21781;BME280;52576;53.614;9.894;2022-12-18T04:36:43;102497.69;;;-6.48;100.00
21781;BME280;52576;53.614;9.894;2022-12-18T04:37:47;102501.22;;;-6.51;100.00
21781;BME280;52576;53.614;9.894;2022-12-18T04:38:49;102488.28;;;-6.52;100.00
21781;BME280;52576;53.614;9.894;2022-12-18T04:39:53;102490.06;;;-6.54;100.00
21781;BME280;52576;53.614;9.894;2022-12-18T04:41:02;102486.66;;;-6.56;100.00
21781;BME280;52576;53.614;9.894;2022-12-18T04:42:05;102491.91;;;-6.58;100.00
21781;BME280;52576;53.614;9.894;2022-12-18T04:43:08;102491.91;;;-6.58;100.00
21781;BME280;52576;53.614;9.894;2022-12-18T04:44:11;102489.31;;;-6.58;100.00
21781;BME280;52576;53.614;9.894;2022-12-18T04:45:13;102486.84;;;-6.61;100.00
21781;BME280;52576;53.614;9.894;2022-12-18T04:46:18;102488.56;;;-6.61;100.00
21781;BME280;52576;53.614;9.894;2022-12-18T04:47:20;102491.22;;;-6.63;100.00
21781;BME280;52576;53.614;9.894;2022-12-18T04:48:23;102489.53;;;-6.64;100.00
21781;BME280;52576;53.614;9.894;2022-12-18T04:49:26;102493.03;;;-6.65;100.00
21781;BME280;52576;53.614;9.894;2022-12-18T04:50:29;102494.81;;;-6.65;100.00
21781;BME280;52576;53.614;9.894;2022-12-18T04:51:32;102490.44;;;-6.65;100.00
21781;BME280;52576;53.614;9.894;2022-12-18T04:52:35;102498.28;;;-6.66;100.00
21781;BME280;52576;53.614;9.894;2022-12-18T04:53:38;102497.41;;;-6.65;100.00
21781;BME280;52576;53.614;9.894;2022-12-18T04:54:41;102495.69;;;-6.66;100.00
21781;BME280;52576;53.614;9.894;2022-12-18T04:55:44;102505.25;;;-6.67;100.00
21781;BME280;52576;53.614;9.894;2022-12-18T04:56:47;102497.47;;;-6.67;100.00
21781;BME280;52576;53.614;9.894;2022-12-18T04:57:49;102498.28;;;-6.66;100.00
21781;BME280;52576;53.614;9.894;2022-12-18T04:58:52;102514.81;;;-6.67;100.00
21781;BME280;52576;53.614;9.894;2022-12-18T04:59:54;102492.25;;;-6.67;100.00
21781;BME280;52576;53.614;9.894;2022-12-18T05:00:57;102494.84;;;-6.67;100.00
21781;BME280;52576;53.614;9.894;2022-12-18T05:02:01;102498.28;;;-6.66;100.00
21781;BME280;52576;53.614;9.894;2022-12-18T05:03:04;102498.22;;;-6.65;100.00
21781;BME280;52576;53.614;9.894;2022-12-18T05:04:06;102500.84;;;-6.65;100.00
21781;BME280;52576;53.614;9.894;2022-12-18T05:05:09;102506.84;;;-6.63;100.00
21781;BME280;52576;53.614;9.894;2022-12-18T05:06:12;102509.44;;;-6.63;100.00
21781;BME280;52576;53.614;9.894;2022-12-18T05:07:16;102507.63;;;-6.61;100.00
21781;BME280;52576;53.614;9.894;2022-12-18T05:08:18;102505.03;;;-6.61;100.00
21781;BME280;52576;53.614;9.894;2022-12-18T05:09:22;102506.78;;;-6.61;100.00
21781;BME280;52576;53.614;9.894;2022-12-18T05:10:24;102519.72;;;-6.60;100.00
21781;BME280;52576;53.614;9.894;2022-12-18T05:11:27;102523.19;;;-6.59;100.00
21781;BME280;52576;53.614;9.894;2022-12-18T05:12:30;102528.41;;;-6.59;100.00
21781;BME280;52576;53.614;9.894;2022-12-18T05:13:34;102522.34;;;-6.60;100.00
21781;BME280;52576;53.614;9.894;2022-12-18T05:14:37;102524.91;;;-6.58;100.00
21781;BME280;52576;53.614;9.894;2022-12-18T05:15:40;102536.16;;;-6.58;100.00
21781;BME280;52576;53.614;9.894;2022-12-18T05:16:43;102538.75;;;-6.58;100.00
21781;BME280;52576;53.614;9.894;2022-12-18T05:17:47;102531.81;;;-6.57;100.00
21781;BME280;52576;53.614;9.894;2022-12-18T05:18:50;102538.69;;;-6.56;100.00
21781;BME280;52576;53.614;9.894;2022-12-18T05:19:53;102546.78;;;-6.64;100.00
21781;BME280;52576;53.614;9.894;2022-12-18T05:20:55;102533.47;;;-6.56;100.00
21781;BME280;52576;53.614;9.894;2022-12-18T05:21:58;102529.16;;;-6.56;100.00
21781;BME280;52576;53.614;9.894;2022-12-18T05:23:00;102535.22;;;-6.55;100.00
21781;BME280;52576;53.614;9.894;2022-12-18T05:24:04;102536.00;;;-6.53;100.00
21781;BME280;52576;53.614;9.894;2022-12-18T05:25:07;102525.63;;;-6.55;100.00
21781;BME280;52576;53.614;9.894;2022-12-18T05:26:15;102535.09;;;-6.52;100.00
21781;BME280;52576;53.614;9.894;2022-12-18T05:27:18;102529.84;;;-6.51;100.00
21781;BME280;52576;53.614;9.894;2022-12-18T05:28:24;102530.69;;;-6.50;100.00
21781;BME280;52576;53.614;9.894;2022-12-18T05:29:26;102524.59;;;-6.49;100.00
21781;BME280;52576;53.614;9.894;2022-12-18T05:30:29;102515.91;;;-6.50;100.00
21781;BME280;52576;53.614;9.894;2022-12-18T05:31:31;102527.13;;;-6.48;100.00
21781;BME280;52576;53.614;9.894;2022-12-18T05:32:41;102525.38;;;-6.47;100.00
21781;BME280;52576;53.614;9.894;2022-12-18T05:33:44;102530.53;;;-6.46;100.00
21781;BME280;52576;53.614;9.894;2022-12-18T05:34:50;102528.84;;;-6.47;100.00
21781;BME280;52576;53.614;9.894;2022-12-18T05:35:52;102534.00;;;-6.45;100.00
21781;BME280;52576;53.614;9.894;2022-12-18T05:36:56;102529.66;;;-6.46;100.00
21781;BME280;52576;53.614;9.894;2022-12-18T05:37:59;102541.78;;;-6.45;100.00
21781;BME280;52576;53.614;9.894;2022-12-18T05:39:01;102540.94;;;-6.46;100.00
21781;BME280;52576;53.614;9.894;2022-12-18T05:40:06;102548.69;;;-6.44;100.00